createdAt,value
2023-02-25T00:01:19.975Z,10.85
2023-02-25T00:03:46.959Z,11.38
2023-02-25T00:06:14.678Z,10.75
2023-02-25T00:08:45.973Z,10.32
2023-02-25T00:11:14.478Z,11.63
2023-02-25T00:13:42.699Z,11.80
2023-02-25T00:16:10.114Z,11.43
2023-02-25T00:18:37.312Z,12.82
2023-02-25T00:21:06.107Z,11.05
2023-02-25T00:23:32.907Z,11.25
2023-02-25T00:26:02.024Z,12.25
2023-02-25T00:28:28.986Z,12.70
2023-02-25T00:30:55.882Z,8.70
2023-02-25T00:33:22.773Z,8.27
2023-02-25T00:35:52.745Z,7.75
2023-02-25T00:38:19.392Z,7.38
2023-02-25T00:40:46.094Z,7.18
2023-02-25T00:43:12.807Z,5.32
2023-02-25T00:45:42.898Z,5.57
2023-02-25T00:48:09.593Z,5.07
2023-02-25T00:50:36.719Z,4.80
2023-02-25T00:53:03.349Z,4.60
2023-02-25T00:55:33.506Z,3.97
2023-02-25T00:58:03.202Z,3.88
2023-02-25T01:00:30.607Z,3.70
2023-02-25T01:02:58.513Z,3.78
2023-02-25T01:05:25.251Z,3.55
2023-02-25T01:07:52.200Z,3.80
2023-02-25T01:10:19.034Z,3.85
2023-02-25T01:12:46.068Z,4.13
2023-02-25T01:15:13.391Z,4.25
2023-02-25T01:17:40.261Z,4.40
2023-02-25T01:20:11.529Z,4.88
2023-02-25T01:22:41.645Z,4.53
2023-02-25T01:25:13.233Z,4.68
2023-02-25T01:27:40.253Z,4.85
2023-02-25T01:30:08.303Z,5.20
2023-02-25T01:32:35.362Z,5.07
2023-02-25T01:35:02.359Z,4.78
2023-02-25T01:37:29.439Z,4.82
2023-02-25T01:39:56.182Z,5.13
2023-02-25T01:42:24.077Z,5.32
2023-02-25T01:45:19.129Z,4.68
2023-02-25T01:48:14.825Z,5.57
2023-02-25T01:50:48.926Z,5.35
2023-02-25T01:53:20.099Z,5.05
2023-02-25T01:55:47.695Z,5.20
2023-02-25T01:58:14.650Z,4.95
2023-02-25T02:00:41.635Z,5.30
2023-02-25T02:03:15.900Z,5.47
2023-02-25T02:05:58.420Z,5.53
2023-02-25T02:08:26.405Z,5.05
2023-02-25T02:10:53.293Z,4.78
2023-02-25T02:13:20.597Z,5.18
2023-02-25T02:16:14.549Z,5.85
2023-02-25T02:18:55.956Z,5.45
2023-02-25T02:21:35.310Z,5.60
2023-02-25T02:24:35.974Z,5.25
2023-02-25T02:27:09.488Z,5.32
2023-02-25T02:30:05.027Z,5.80
2023-02-25T02:32:55.085Z,5.60
2023-02-25T02:35:38.523Z,4.78
2023-02-25T02:38:14.479Z,5.45
2023-02-25T02:41:02.377Z,5.85
2023-02-25T02:43:44.388Z,6.38
2023-02-25T02:46:20.502Z,6.32
2023-02-25T02:48:56.655Z,5.68
2023-02-25T02:51:29.795Z,4.60
2023-02-25T02:53:59.737Z,5.00
2023-02-25T02:56:28.566Z,4.85
2023-02-25T02:59:23.858Z,5.00
2023-02-25T03:01:55.620Z,4.68
2023-02-25T03:04:29.633Z,4.63
2023-02-25T03:07:01.746Z,4.75
2023-02-25T03:09:46.275Z,4.57
2023-02-25T03:12:13.105Z,4.80
2023-02-25T03:14:40.042Z,4.65
2023-02-25T03:17:09.199Z,4.72
2023-02-25T03:19:44.810Z,4.70
2023-02-25T03:22:13.535Z,4.72
2023-02-25T03:24:48.874Z,4.57
2023-02-25T03:27:23.413Z,4.60
2023-02-25T03:29:50.427Z,4.97
2023-02-25T03:32:19.917Z,5.20
2023-02-25T03:34:49.703Z,4.88
2023-02-25T03:37:23.530Z,4.97
2023-02-25T03:39:55.665Z,5.72
2023-02-25T03:42:31.085Z,6.10
2023-02-25T03:45:01.748Z,5.72
2023-02-25T03:47:31.469Z,6.35
2023-02-25T03:50:07.871Z,5.78
2023-02-25T03:52:35.554Z,5.88
2023-02-25T03:55:03.463Z,6.85
2023-02-25T03:57:42.668Z,6.03
2023-02-25T04:00:19.004Z,6.40
2023-02-25T04:02:47.389Z,6.90
2023-02-25T04:05:15.741Z,6.78
2023-02-25T04:07:42.603Z,7.30
2023-02-25T04:10:11.470Z,6.80
2023-02-25T04:12:38.675Z,6.30
2023-02-25T04:15:06.850Z,6.90
2023-02-25T04:17:34.375Z,6.72
2023-02-25T04:20:01.034Z,6.95
2023-02-25T04:22:27.817Z,7.05
2023-02-25T04:24:54.489Z,6.47
2023-02-25T04:27:21.223Z,6.07
2023-02-25T04:29:47.913Z,6.32
2023-02-25T04:32:14.827Z,6.15
2023-02-25T04:34:41.624Z,7.13
2023-02-25T04:37:10.020Z,7.32
2023-02-25T04:39:37.131Z,7.00
2023-02-25T04:42:04.039Z,7.10
2023-02-25T04:44:31.080Z,7.22
2023-02-25T04:46:57.884Z,6.82
2023-02-25T04:49:24.919Z,7.05
2023-02-25T04:51:52.368Z,6.65
2023-02-25T04:54:20.188Z,6.95
2023-02-25T04:56:48.660Z,6.85
2023-02-25T04:59:16.173Z,7.20
2023-02-25T05:01:43.178Z,6.75
2023-02-25T05:04:10.041Z,7.03
2023-02-25T05:06:37.007Z,7.03
2023-02-25T05:09:03.985Z,7.18
2023-02-25T05:11:30.735Z,7.88
2023-02-25T05:13:58.382Z,7.72
2023-02-25T05:16:25.925Z,7.47
2023-02-25T05:18:55.536Z,8.02
2023-02-25T05:21:25.043Z,7.90
2023-02-25T05:23:53.925Z,7.90
2023-02-25T05:26:23.818Z,7.53
2023-02-25T05:28:53.553Z,8.60
2023-02-25T05:31:21.448Z,8.15
2023-02-25T05:33:48.177Z,7.97
2023-02-25T05:36:16.429Z,6.85
2023-02-25T05:38:44.076Z,7.28
2023-02-25T05:41:12.024Z,7.43
2023-02-25T05:43:40.349Z,6.97
2023-02-25T05:46:11.922Z,8.18
2023-02-25T05:48:40.740Z,8.85
2023-02-25T05:51:19.424Z,8.40
2023-02-25T05:53:48.048Z,8.20
2023-02-25T05:56:21.028Z,8.45
2023-02-25T05:58:48.570Z,7.90
2023-02-25T06:01:18.657Z,7.80
2023-02-25T06:03:47.145Z,7.95
2023-02-25T06:06:16.520Z,7.57
2023-02-25T06:08:46.938Z,7.45
2023-02-25T06:11:19.096Z,7.85
2023-02-25T06:13:48.805Z,7.65
2023-02-25T06:16:16.183Z,7.57
2023-02-25T06:18:43.072Z,7.70
2023-02-25T06:21:12.553Z,6.80
2023-02-25T06:23:40.851Z,7.63
2023-02-25T06:26:09.325Z,7.40
2023-02-25T06:28:36.338Z,6.85
2023-02-25T06:31:06.668Z,6.30
2023-02-25T06:33:33.364Z,6.07
2023-02-25T06:36:00.086Z,6.45
2023-02-25T06:38:26.797Z,5.97
2023-02-25T06:40:53.534Z,6.18
2023-02-25T06:43:20.239Z,6.43
2023-02-25T06:45:46.962Z,6.70
2023-02-25T06:48:13.724Z,7.45
2023-02-25T06:50:43.306Z,7.53
2023-02-25T06:53:10.361Z,7.15
2023-02-25T06:55:39.190Z,6.47
2023-02-25T06:58:06.140Z,6.00
2023-02-25T07:00:33.013Z,6.00
2023-02-25T07:03:03.146Z,6.22
2023-02-25T07:05:29.991Z,6.75
2023-02-25T07:07:56.982Z,5.57
2023-02-25T07:10:23.703Z,5.38
2023-02-25T07:12:52.079Z,5.07
2023-02-25T07:15:20.369Z,5.05
2023-02-25T07:17:47.646Z,5.10
2023-02-25T07:20:14.547Z,5.00
2023-02-25T07:22:43.976Z,4.50
2023-02-25T07:25:11.820Z,4.00
2023-02-25T07:27:44.643Z,3.67
2023-02-25T07:30:15.452Z,3.95
2023-02-25T07:32:43.059Z,3.50
2023-02-25T07:35:10.947Z,3.80
2023-02-25T07:37:38.061Z,2.72
2023-02-25T07:40:14.251Z,2.40
2023-02-25T07:42:41.870Z,2.58
2023-02-25T07:45:10.174Z,2.22
2023-02-25T07:47:38.015Z,2.38
2023-02-25T07:50:06.948Z,2.38
2023-02-25T07:52:33.681Z,1.90
2023-02-25T07:55:00.503Z,2.30
2023-02-25T07:57:28.454Z,2.22
2023-02-25T07:59:55.343Z,2.30
2023-02-25T08:02:22.126Z,1.90
2023-02-25T08:04:48.930Z,2.10
2023-02-25T08:07:15.704Z,2.20
2023-02-25T08:09:43.113Z,2.15
2023-02-25T08:12:09.912Z,2.30
2023-02-25T08:14:37.678Z,1.90
2023-02-25T08:17:04.377Z,1.80
2023-02-25T08:19:31.071Z,1.90
2023-02-25T08:21:57.936Z,1.80
2023-02-25T08:24:24.715Z,1.92
2023-02-25T08:26:51.540Z,1.98
2023-02-25T08:29:18.303Z,2.10
2023-02-25T08:31:47.067Z,1.92
2023-02-25T08:34:14.002Z,2.10
2023-02-25T08:36:40.793Z,1.70
2023-02-25T08:39:09.042Z,2.17
2023-02-25T08:41:36.477Z,2.03
2023-02-25T08:44:03.710Z,2.55
2023-02-25T08:46:32.516Z,2.03
2023-02-25T08:48:59.915Z,2.20
2023-02-25T08:51:36.588Z,2.60
2023-02-25T08:54:09.668Z,2.53
2023-02-25T08:56:37.101Z,2.45
2023-02-25T08:59:04.930Z,2.40
2023-02-25T09:01:44.860Z,2.30
2023-02-25T09:04:17.290Z,2.60
2023-02-25T09:06:47.390Z,2.53
2023-02-25T09:09:15.756Z,2.90
2023-02-25T09:11:43.518Z,2.55
2023-02-25T09:14:10.975Z,2.22
2023-02-25T09:16:38.011Z,2.40
2023-02-25T09:19:04.768Z,1.83
2023-02-25T09:21:31.860Z,2.20
2023-02-25T09:23:59.427Z,2.22
2023-02-25T09:26:26.148Z,1.80
2023-02-25T09:28:52.884Z,2.10
2023-02-25T09:31:19.845Z,1.90
2023-02-25T09:33:46.679Z,1.50
2023-02-25T09:36:16.876Z,1.90
2023-02-25T09:38:44.975Z,1.25
2023-02-25T09:41:36.792Z,1.58
2023-02-25T09:44:29.629Z,1.30
2023-02-25T09:47:12.781Z,1.50
2023-02-25T09:49:48.486Z,1.50
2023-02-25T09:52:31.906Z,1.50
2023-02-25T09:55:18.974Z,1.73
2023-02-25T09:57:56.434Z,1.75
2023-02-25T10:00:23.887Z,1.50
2023-02-25T10:03:08.063Z,1.70
2023-02-25T10:06:07.549Z,1.60
2023-02-25T10:08:51.754Z,1.75
2023-02-25T10:11:34.590Z,1.55
2023-02-25T10:14:29.305Z,1.75
2023-02-25T10:17:47.912Z,1.50
2023-02-25T10:20:38.900Z,1.50
2023-02-25T10:23:23.672Z,1.73
2023-02-25T10:26:18.209Z,1.50
2023-02-25T10:28:50.515Z,1.75
2023-02-25T10:31:22.271Z,1.45
2023-02-25T10:33:51.978Z,1.52
2023-02-25T10:36:35.777Z,1.63
2023-02-25T10:39:02.568Z,1.33
2023-02-25T10:41:30.524Z,1.70
2023-02-25T10:43:57.862Z,1.40
2023-02-25T10:46:40.378Z,1.23
2023-02-25T10:49:23.130Z,1.55
2023-02-25T10:52:01.128Z,1.30
2023-02-25T10:54:27.993Z,1.65
2023-02-25T10:56:55.611Z,1.30
2023-02-25T10:59:30.059Z,1.80
2023-02-25T11:01:59.731Z,1.83
2023-02-25T11:04:34.808Z,1.50
2023-02-25T11:07:01.662Z,1.60
2023-02-25T11:09:32.434Z,1.80
2023-02-25T11:12:09.076Z,1.50
2023-02-25T11:14:37.481Z,1.77
2023-02-25T11:17:21.857Z,1.90
2023-02-25T11:19:59.607Z,1.58
2023-02-25T11:22:38.151Z,1.70
2023-02-25T11:25:15.642Z,1.50
2023-02-25T11:27:45.184Z,1.50
2023-02-25T11:30:19.841Z,1.50
2023-02-25T11:32:55.043Z,1.27
2023-02-25T11:35:30.551Z,1.45
2023-02-25T11:38:24.387Z,1.23
2023-02-25T11:40:51.317Z,1.30
2023-02-25T11:43:27.244Z,1.40
2023-02-25T11:46:04.096Z,1.42
2023-02-25T11:49:00.179Z,1.30
2023-02-25T11:51:31.641Z,1.60
2023-02-25T11:54:24.608Z,1.42
2023-02-25T11:56:57.383Z,1.85
2023-02-25T11:59:55.197Z,1.50
2023-02-25T12:02:44.639Z,1.50
2023-02-25T12:05:43.609Z,1.45
2023-02-25T12:08:19.533Z,1.60
2023-02-25T12:11:04.916Z,1.65
2023-02-25T12:14:09.672Z,1.48
2023-02-25T12:17:04.555Z,1.75
2023-02-25T12:19:41.073Z,1.42
2023-02-25T12:22:29.337Z,1.65
2023-02-25T12:25:15.437Z,1.50
2023-02-25T12:28:06.049Z,1.40
2023-02-25T12:30:51.683Z,1.60
2023-02-25T12:33:39.571Z,1.30
2023-02-25T12:36:31.508Z,1.35
2023-02-25T12:39:27.096Z,1.38
2023-02-25T12:42:02.968Z,1.55
2023-02-25T12:44:47.545Z,1.23
2023-02-25T12:47:18.160Z,1.30
2023-02-25T12:50:19.227Z,1.45
2023-02-25T12:53:07.541Z,1.45
2023-02-25T12:56:17.093Z,1.58
2023-02-25T12:58:55.855Z,1.50
2023-02-25T13:01:26.513Z,1.35
2023-02-25T13:04:12.049Z,1.90
2023-02-25T13:07:03.298Z,1.63
2023-02-25T13:09:46.712Z,1.48
2023-02-25T13:12:23.270Z,2.10
2023-02-25T13:14:56.867Z,1.10
2023-02-25T13:17:38.620Z,1.33
2023-02-25T13:20:43.636Z,1.30
2023-02-25T13:23:48.215Z,1.10
2023-02-25T13:26:33.413Z,1.40
2023-02-25T13:29:12.445Z,1.67
2023-02-25T13:32:21.682Z,1.35
2023-02-25T13:35:03.910Z,1.60
2023-02-25T13:37:50.250Z,1.25
2023-02-25T13:40:23.705Z,1.30
2023-02-25T13:43:22.374Z,1.20
2023-02-25T13:46:05.547Z,1.40
2023-02-25T13:48:46.642Z,1.33
2023-02-25T13:51:47.764Z,1.48
2023-02-25T13:54:31.240Z,1.35
2023-02-25T13:57:24.827Z,1.40
2023-02-25T14:00:04.493Z,1.42
2023-02-25T14:02:34.031Z,1.50
2023-02-25T14:05:15.934Z,1.40
2023-02-25T14:08:09.990Z,1.30
2023-02-25T14:10:54.354Z,1.10
2023-02-25T14:13:23.873Z,1.40
2023-02-25T14:16:05.436Z,1.55
2023-02-25T14:18:44.255Z,1.35
2023-02-25T14:21:29.015Z,1.20
2023-02-25T14:26:40.881Z,1.70
2023-02-25T14:29:42.944Z,1.30
2023-02-25T14:32:29.916Z,1.40
2023-02-25T14:35:16.852Z,1.30
2023-02-25T14:38:15.032Z,1.20
2023-02-25T14:40:48.497Z,0.90
2023-02-25T14:43:29.318Z,0.80
2023-02-25T14:46:23.038Z,0.85
2023-02-25T14:49:20.967Z,0.77
2023-02-25T14:52:25.309Z,0.90
2023-02-25T14:55:33.863Z,0.77
2023-02-25T14:58:22.078Z,1.27
2023-02-25T15:01:07.604Z,1.20
2023-02-25T15:04:17.102Z,1.10
2023-02-25T15:07:08.864Z,1.10
2023-02-25T15:10:06.448Z,1.10
2023-02-25T15:13:02.734Z,1.08
2023-02-25T15:16:06.739Z,1.20
2023-02-25T15:19:08.267Z,1.35
2023-02-25T15:21:45.244Z,1.30
2023-02-25T15:24:38.585Z,1.75
2023-02-25T15:27:41.926Z,1.30
2023-02-25T15:30:08.991Z,1.17
2023-02-25T15:33:13.623Z,1.60
2023-02-25T15:35:40.426Z,1.20
2023-02-25T15:38:40.511Z,1.30
2023-02-25T15:41:38.439Z,1.48
2023-02-25T15:44:08.081Z,1.50
2023-02-25T15:46:34.889Z,1.33
2023-02-25T15:49:07.853Z,1.45
2023-02-25T15:51:51.523Z,1.40
2023-02-25T15:54:30.445Z,1.23
2023-02-25T15:57:01.278Z,1.10
2023-02-25T15:59:43.292Z,1.20
2023-02-25T16:02:46.390Z,1.20
2023-02-25T16:05:20.389Z,1.05
2023-02-25T16:07:49.813Z,1.20
2023-02-25T16:10:23.273Z,1.13
2023-02-25T16:12:53.061Z,1.27
2023-02-25T16:15:43.328Z,1.58
2023-02-25T16:18:31.434Z,1.40
2023-02-25T16:21:07.303Z,1.23
2023-02-25T16:23:39.803Z,1.27
2023-02-25T16:26:25.458Z,1.10
2023-02-25T16:29:19.760Z,1.27
2023-02-25T16:32:09.044Z,1.43
2023-02-25T16:35:01.231Z,1.30
2023-02-25T16:37:57.091Z,1.33
2023-02-25T16:40:39.828Z,1.15
2023-02-25T16:43:12.757Z,1.40
2023-02-25T16:45:47.111Z,1.58
2023-02-25T16:48:22.864Z,1.30
2023-02-25T16:50:51.259Z,1.30
2023-02-25T16:53:23.919Z,1.10
2023-02-25T16:55:57.098Z,1.30
2023-02-25T16:58:26.057Z,1.33
2023-02-25T17:01:03.970Z,1.48
2023-02-25T17:03:41.485Z,1.17
2023-02-25T17:06:17.189Z,1.15
2023-02-25T17:08:50.924Z,1.20
2023-02-25T17:11:23.589Z,1.40
2023-02-25T17:13:52.836Z,1.05
2023-02-25T17:16:43.589Z,1.40
2023-02-25T17:19:11.653Z,1.17
2023-02-25T17:21:42.049Z,1.40
2023-02-25T17:24:13.875Z,1.58
2023-02-25T17:26:47.385Z,1.55
2023-02-25T17:29:16.452Z,1.42
2023-02-25T17:31:54.580Z,1.27
2023-02-25T17:34:33.023Z,1.40
2023-02-25T17:37:05.753Z,1.40
2023-02-25T17:39:33.991Z,1.80
2023-02-25T17:42:00.856Z,1.60
2023-02-25T17:44:36.695Z,1.60
2023-02-25T17:47:05.200Z,1.40
2023-02-25T17:49:34.460Z,1.48
2023-02-25T17:52:08.109Z,1.50
2023-02-25T17:54:37.398Z,0.93
2023-02-25T17:57:14.714Z,1.13
2023-02-25T17:59:43.774Z,1.10
2023-02-25T18:02:36.859Z,1.15
2023-02-25T18:05:12.753Z,1.73
2023-02-25T18:08:03.538Z,1.85
2023-02-25T18:10:33.281Z,1.70
2023-02-25T18:13:02.632Z,7.57
2023-02-25T18:15:33.219Z,4.60
2023-02-25T18:18:01.478Z,12.15
2023-02-25T18:20:32.937Z,6.93
2023-02-25T18:23:08.341Z,4.30
2023-02-25T18:25:36.750Z,1.50
2023-02-25T18:28:05.525Z,1.58
2023-02-25T18:30:33.090Z,1.55
2023-02-25T18:33:00.424Z,1.45
2023-02-25T18:35:29.433Z,1.58
2023-02-25T18:37:57.752Z,1.63
2023-02-25T18:40:39.660Z,1.30
2023-02-25T18:43:07.235Z,1.30
2023-02-25T18:45:34.650Z,1.23
2023-02-25T18:48:01.776Z,2.90
2023-02-25T18:50:32.854Z,7.53
2023-02-25T18:53:00.971Z,22.33
2023-02-25T18:55:30.517Z,25.45
2023-02-25T18:57:57.629Z,10.75
2023-02-25T19:00:27.399Z,20.63
2023-02-25T19:02:57.979Z,14.30
2023-02-25T19:05:26.380Z,6.63
2023-02-25T19:07:53.349Z,2.55
2023-02-25T19:10:23.267Z,8.75
2023-02-25T19:12:50.881Z,26.02
2023-02-25T19:15:20.641Z,30.15
2023-02-25T19:17:49.220Z,24.17
2023-02-25T19:20:18.520Z,17.90
2023-02-25T19:22:47.696Z,14.98
2023-02-25T19:25:25.168Z,12.80
2023-02-25T19:27:53.954Z,9.40
2023-02-25T19:30:24.918Z,8.98
2023-02-25T19:32:52.410Z,9.68
2023-02-25T19:35:19.134Z,8.07
2023-02-25T19:37:45.923Z,8.43
2023-02-25T19:40:15.880Z,7.18
2023-02-25T19:42:44.571Z,8.20
2023-02-25T19:45:14.764Z,7.68
2023-02-25T19:47:41.764Z,7.32
2023-02-25T19:50:09.891Z,7.32
2023-02-25T19:52:36.576Z,5.97
2023-02-25T19:55:05.014Z,5.90
2023-02-25T19:57:32.137Z,5.10
2023-02-25T19:59:59.201Z,4.70
2023-02-25T20:02:25.957Z,4.70
2023-02-25T20:04:52.750Z,4.00
2023-02-25T20:07:19.391Z,4.53
2023-02-25T20:09:46.093Z,4.70
2023-02-25T20:12:12.783Z,16.17
2023-02-25T20:14:39.482Z,12.88
2023-02-25T20:17:06.228Z,11.32
2023-02-25T20:19:33.051Z,8.80
2023-02-25T20:22:01.691Z,6.03
2023-02-25T20:24:29.672Z,5.38
2023-02-25T20:26:56.753Z,3.35
2023-02-25T20:29:23.530Z,4.43
2023-02-25T20:31:50.317Z,4.50
2023-02-25T20:34:20.677Z,5.75
2023-02-25T20:36:58.791Z,3.75
2023-02-25T20:39:37.707Z,3.35
2023-02-25T20:42:06.811Z,3.10
2023-02-25T20:44:33.691Z,3.28
2023-02-25T20:47:00.505Z,3.20
2023-02-25T20:49:27.496Z,2.90
2023-02-25T20:51:54.488Z,2.60
2023-02-25T20:54:21.286Z,2.75
2023-02-25T20:56:49.169Z,2.90
2023-02-25T20:59:17.152Z,3.35
2023-02-25T21:01:44.159Z,2.92
2023-02-25T21:04:11.528Z,2.83
2023-02-25T21:06:38.479Z,3.47
2023-02-25T21:15:18.788Z,3.40
2023-02-25T21:17:45.663Z,3.38
2023-02-25T21:20:12.632Z,3.70
2023-02-25T21:22:39.312Z,3.65
2023-02-25T21:25:06.127Z,3.90
2023-02-25T21:27:32.782Z,4.38
2023-02-25T21:29:59.408Z,3.95
2023-02-25T21:32:26.061Z,4.00
2023-02-25T21:34:52.873Z,4.03
2023-02-25T21:37:19.498Z,4.57
2023-02-25T21:39:46.382Z,4.10
2023-02-25T21:42:13.067Z,4.10
2023-02-25T21:44:39.681Z,4.95
2023-02-25T21:47:06.870Z,4.22
2023-02-25T21:49:33.766Z,5.40
2023-02-25T21:52:00.564Z,5.75
2023-02-25T21:54:27.510Z,5.60
2023-02-25T21:56:54.226Z,5.18
2023-02-25T21:59:21.043Z,5.40
2023-02-25T22:01:47.866Z,4.70
2023-02-25T22:04:14.872Z,5.50
2023-02-25T22:06:43.094Z,5.82
2023-02-25T22:09:09.864Z,4.28
2023-02-25T22:11:37.700Z,5.18
2023-02-25T22:14:07.098Z,4.50
2023-02-25T22:16:35.702Z,4.43
2023-02-25T22:19:02.452Z,4.70
2023-02-25T22:21:31.351Z,4.50
2023-02-25T22:24:00.872Z,4.88
2023-02-25T22:26:29.836Z,4.45
2023-02-25T22:28:58.915Z,4.70
2023-02-25T22:31:26.539Z,4.35
2023-02-25T22:33:53.925Z,4.82
2023-02-25T22:36:20.765Z,4.35
2023-02-25T22:38:48.893Z,4.50
2023-02-25T22:41:25.907Z,4.90
2023-02-25T22:43:52.839Z,4.07
2023-02-25T22:46:25.777Z,4.20
2023-02-25T22:48:53.356Z,4.00
2023-02-25T22:51:26.002Z,4.57
2023-02-25T22:53:53.453Z,3.60
2023-02-25T22:56:20.582Z,3.53
2023-02-25T22:58:47.662Z,3.53
2023-02-25T23:01:15.935Z,3.90
2023-02-25T23:03:43.992Z,3.70
2023-02-25T23:06:12.083Z,3.50
2023-02-25T23:08:39.279Z,3.60
2023-02-25T23:11:22.069Z,4.00
2023-02-25T23:13:51.577Z,3.70
2023-02-25T23:16:24.843Z,3.35
2023-02-25T23:18:52.716Z,3.40
2023-02-25T23:21:20.118Z,3.13
2023-02-25T23:23:49.435Z,3.70
2023-02-25T23:26:20.005Z,3.47
2023-02-25T23:28:47.906Z,3.78
2023-02-25T23:31:28.575Z,3.60
2023-02-25T23:34:00.593Z,2.85
2023-02-25T23:36:28.114Z,3.10
2023-02-25T23:38:57.194Z,3.13
2023-02-25T23:41:25.171Z,3.08
2023-02-25T23:43:53.578Z,3.03
2023-02-25T23:46:21.214Z,3.05
2023-02-25T23:48:47.929Z,2.78
2023-02-25T23:51:15.317Z,2.97
2023-02-25T23:53:42.157Z,3.10
2023-02-25T23:56:10.862Z,3.30
2023-02-25T23:58:38.406Z,2.80
